Date,TemperatureHighF,TemperatureAvgF,TemperatureLowF,DewpointHighF,DewpointAvgF,DewpointLowF,HumidityHigh,HumidityAvg,HumidityLow,PressureMaxIn,PressureMinIn,WindSpeedMaxMPH,WindSpeedAvgMPH,GustSpeedMaxMPH,PrecipitationSumIn
2013-2-1,56.0,37.6,19.0,25.5,20.4,15.7,90,55,23,30.35,30.19,6,1,10,0.00
2013-2-2,57.3,40.1,23.0,25.2,21.1,17.0,80,50,23,30.42,30.28,2,0,5,0.00
2013-2-3,52.8,40.9,25.5,30.5,22.3,17.2,80,50,25,30.33,30.00,6,0,8,0.00
2013-2-4,57.7,45.2,31.9,31.2,25.9,19.8,81,49,23,30.08,29.93,6,2,10,0.00
2013-2-5,59.2,41.3,26.5,26.3,20.2,14.8,80,47,18,30.10,29.93,4,0,8,0.00
2013-2-6,62.6,46.2,27.2,29.0,22.7,16.8,68,42,26,30.00,29.83,5,1,10,0.00
2013-2-7,56.7,41.3,27.9,28.2,21.2,12.4,80,48,19,30.12,29.97,2,0,7,0.00
2013-2-8,60.0,43.6,28.8,25.4,21.9,16.9,74,45,25,30.11,29.71,7,1,12,0.00
2013-2-9,51.2,35.5,22.1,24.5,17.2,6.3,81,51,21,29.87,29.58,10,2,21,0.00
2013-2-10,45.1,33.0,20.5,23.0,15.4,10.4,78,52,26,30.03,29.87,4,1,10,0.00
2013-2-11,48.4,33.2,19.1,23.7,17.2,5.0,85,57,18,30.10,29.95,6,1,11,0.00
2013-2-12,40.2,31.4,25.8,22.7,12.9,7.1,70,48,25,30.25,30.00,8,2,14,0.00
2013-2-13,49.8,34.8,17.3,16.5,13.0,8.3,74,43,25,30.28,30.10,9,3,14,0.00
2013-2-14,53.5,44.5,31.9,21.9,18.7,15.8,54,37,23,30.24,30.07,11,4,19,0.00
2013-2-15,53.1,35.7,22.1,22.8,15.6,4.9,77,49,17,30.38,30.24,11,2,17,0.00
2013-2-16,58.2,43.7,20.5,14.4,9.0,0.5,67,27,10,30.48,30.17,4,0,7,0.00
2013-2-17,60.0,40.9,19.9,11.7,6.7,2.9,58,28,10,30.18,29.71,4,1,8,0.00
2013-2-18,53.4,41.2,27.9,18.5,-0.8,-21.5,54,21,4,30.07,29.80,9,2,13,0.00
2013-2-19,60.8,41.4,18.9,35.5,9.7,-5.5,66,31,11,30.10,29.72,9,3,13,0.00
2013-2-20,53.9,43.6,35.0,35.9,29.4,17.0,82,60,25,29.73,29.39,9,2,12,0.00
2013-2-21,49.6,38.1,29.9,28.9,23.6,16.8,89,60,27,29.90,29.49,7,1,15,0.01
2013-2-22,45.0,34.5,24.3,24.8,20.1,10.7,78,57,27,30.10,29.89,10,1,14,0.00
2013-2-23,49.4,33.5,15.7,15.6,12.3,9.5,79,46,22,30.16,29.76,4,1,10,0.00
2013-2-24,43.9,36.9,30.0,25.4,13.0,4.2,82,40,23,29.91,29.65,14,7,23,0.00
2013-2-25,50.3,37.3,25.9,25.4,10.9,0.8,82,38,14,30.14,29.91,9,3,15,0.00
2013-2-26,50.0,33.8,16.8,16.5,5.3,-9.5,66,34,11,30.15,29.86,14,4,25,0.00
2013-2-27,46.0,32.4,16.5,11.2,5.4,-2.1,64,34,16,30.36,30.16,3,0,6,0.00
2013-2-28,55.1,36.5,18.4,10.1,4.3,-4.5,55,28,9,30.43,30.26,9,1,10,0.00